sensor_id;sensor_type;location;lat;lon;timestamp;P1;durP1;ratioP1;P2;durP2;ratioP2
75506;SDS011;64086;43.220;27.878;2022-12-29T00:01:16;51.47;;;33.80;;
75506;SDS011;64086;43.220;27.878;2022-12-29T00:03:45;51.95;;;35.20;;
75506;SDS011;64086;43.220;27.878;2022-12-29T00:06:10;53.85;;;35.78;;
75506;SDS011;64086;43.220;27.878;2022-12-29T00:08:36;55.90;;;36.53;;
75506;SDS011;64086;43.220;27.878;2022-12-29T00:11:08;66.05;;;42.20;;
75506;SDS011;64086;43.220;27.878;2022-12-29T00:13:37;63.28;;;42.00;;
75506;SDS011;64086;43.220;27.878;2022-12-29T00:18:46;81.45;;;47.80;;
75506;SDS011;64086;43.220;27.878;2022-12-29T00:21:13;72.32;;;42.88;;
75506;SDS011;64086;43.220;27.878;2022-12-29T00:23:58;65.10;;;41.30;;
75506;SDS011;64086;43.220;27.878;2022-12-29T00:27:13;64.07;;;40.15;;
75506;SDS011;64086;43.220;27.878;2022-12-29T00:29:57;47.08;;;31.10;;
75506;SDS011;64086;43.220;27.878;2022-12-29T00:32:40;46.60;;;29.80;;
75506;SDS011;64086;43.220;27.878;2022-12-29T00:38:21;51.08;;;31.85;;
75506;SDS011;64086;43.220;27.878;2022-12-29T00:41:05;49.17;;;32.60;;
75506;SDS011;64086;43.220;27.878;2022-12-29T00:43:49;45.85;;;31.45;;
75506;SDS011;64086;43.220;27.878;2022-12-29T00:46:35;54.40;;;35.78;;
75506;SDS011;64086;43.220;27.878;2022-12-29T00:49:03;48.95;;;34.30;;
75506;SDS011;64086;43.220;27.878;2022-12-29T00:51:49;48.78;;;33.13;;
75506;SDS011;64086;43.220;27.878;2022-12-29T00:54:15;54.70;;;37.25;;
75506;SDS011;64086;43.220;27.878;2022-12-29T00:56:40;51.47;;;33.17;;
75506;SDS011;64086;43.220;27.878;2022-12-29T00:59:08;49.58;;;34.05;;
75506;SDS011;64086;43.220;27.878;2022-12-29T01:01:34;50.03;;;32.80;;
75506;SDS011;64086;43.220;27.878;2022-12-29T01:04:00;45.28;;;32.03;;
75506;SDS011;64086;43.220;27.878;2022-12-29T01:06:25;45.40;;;31.20;;
75506;SDS011;64086;43.220;27.878;2022-12-29T01:08:51;44.33;;;30.35;;
75506;SDS011;64086;43.220;27.878;2022-12-29T01:11:37;47.90;;;31.27;;
75506;SDS011;64086;43.220;27.878;2022-12-29T01:14:03;45.72;;;31.27;;
75506;SDS011;64086;43.220;27.878;2022-12-29T01:16:29;47.38;;;34.00;;
75506;SDS011;64086;43.220;27.878;2022-12-29T01:18:55;54.13;;;34.42;;
75506;SDS011;64086;43.220;27.878;2022-12-29T01:21:20;49.10;;;35.17;;
75506;SDS011;64086;43.220;27.878;2022-12-29T01:23:46;52.67;;;34.67;;
75506;SDS011;64086;43.220;27.878;2022-12-29T01:26:12;53.88;;;35.25;;
75506;SDS011;64086;43.220;27.878;2022-12-29T01:28:38;52.55;;;33.55;;
75506;SDS011;64086;43.220;27.878;2022-12-29T01:31:05;47.65;;;32.13;;
75506;SDS011;64086;43.220;27.878;2022-12-29T01:33:50;47.05;;;30.98;;
75506;SDS011;64086;43.220;27.878;2022-12-29T01:36:16;40.05;;;28.02;;
75506;SDS011;64086;43.220;27.878;2022-12-29T01:38:42;38.15;;;28.42;;
75506;SDS011;64086;43.220;27.878;2022-12-29T01:41:09;39.15;;;26.88;;
75506;SDS011;64086;43.220;27.878;2022-12-29T01:43:46;36.90;;;26.40;;
75506;SDS011;64086;43.220;27.878;2022-12-29T01:46:15;35.70;;;25.73;;
75506;SDS011;64086;43.220;27.878;2022-12-29T01:48:45;40.50;;;24.73;;
75506;SDS011;64086;43.220;27.878;2022-12-29T01:51:11;34.60;;;24.30;;
75506;SDS011;64086;43.220;27.878;2022-12-29T01:53:37;32.40;;;22.45;;
75506;SDS011;64086;43.220;27.878;2022-12-29T01:56:04;29.80;;;20.20;;
75506;SDS011;64086;43.220;27.878;2022-12-29T01:58:33;36.47;;;22.75;;
75506;SDS011;64086;43.220;27.878;2022-12-29T02:01:03;30.92;;;20.73;;
75506;SDS011;64086;43.220;27.878;2022-12-29T02:03:29;30.58;;;20.75;;
75506;SDS011;64086;43.220;27.878;2022-12-29T02:06:05;30.08;;;21.27;;
75506;SDS011;64086;43.220;27.878;2022-12-29T02:08:35;37.05;;;24.60;;
75506;SDS011;64086;43.220;27.878;2022-12-29T02:11:01;30.20;;;22.77;;
75506;SDS011;64086;43.220;27.878;2022-12-29T02:13:28;28.50;;;19.50;;
75506;SDS011;64086;43.220;27.878;2022-12-29T02:26:46;33.78;;;21.30;;
75506;SDS011;64086;43.220;27.878;2022-12-29T02:43:13;34.65;;;21.25;;
75506;SDS011;64086;43.220;27.878;2022-12-29T02:45:46;35.78;;;21.85;;
75506;SDS011;64086;43.220;27.878;2022-12-29T02:51:10;34.72;;;21.75;;
75506;SDS011;64086;43.220;27.878;2022-12-29T02:53:40;34.47;;;22.48;;
75506;SDS011;64086;43.220;27.878;2022-12-29T02:56:23;30.92;;;21.65;;
75506;SDS011;64086;43.220;27.878;2022-12-29T02:58:49;33.92;;;21.52;;
75506;SDS011;64086;43.220;27.878;2022-12-29T03:01:27;30.10;;;21.20;;
75506;SDS011;64086;43.220;27.878;2022-12-29T03:06:59;28.70;;;20.00;;
75506;SDS011;64086;43.220;27.878;2022-12-29T03:14:58;35.45;;;21.63;;
75506;SDS011;64086;43.220;27.878;2022-12-29T03:17:57;31.23;;;21.88;;
75506;SDS011;64086;43.220;27.878;2022-12-29T03:20:25;35.40;;;23.05;;
75506;SDS011;64086;43.220;27.878;2022-12-29T03:22:55;34.92;;;23.23;;
75506;SDS011;64086;43.220;27.878;2022-12-29T03:25:43;31.65;;;22.38;;
75506;SDS011;64086;43.220;27.878;2022-12-29T03:28:13;32.72;;;21.98;;
75506;SDS011;64086;43.220;27.878;2022-12-29T03:30:42;38.55;;;23.45;;
75506;SDS011;64086;43.220;27.878;2022-12-29T03:33:09;33.72;;;22.27;;
75506;SDS011;64086;43.220;27.878;2022-12-29T03:35:37;33.28;;;23.27;;
75506;SDS011;64086;43.220;27.878;2022-12-29T03:40:42;34.40;;;22.25;;
75506;SDS011;64086;43.220;27.878;2022-12-29T03:43:09;32.10;;;22.17;;
75506;SDS011;64086;43.220;27.878;2022-12-29T03:45:35;34.25;;;22.45;;
75506;SDS011;64086;43.220;27.878;2022-12-29T03:48:01;33.78;;;23.23;;
75506;SDS011;64086;43.220;27.878;2022-12-29T03:50:26;30.38;;;21.75;;
75506;SDS011;64086;43.220;27.878;2022-12-29T03:52:51;36.00;;;23.77;;
75506;SDS011;64086;43.220;27.878;2022-12-29T03:55:17;34.60;;;23.80;;
75506;SDS011;64086;43.220;27.878;2022-12-29T03:57:42;37.13;;;25.50;;
75506;SDS011;64086;43.220;27.878;2022-12-29T04:00:08;43.50;;;27.63;;
75506;SDS011;64086;43.220;27.878;2022-12-29T04:02:34;36.42;;;24.17;;
75506;SDS011;64086;43.220;27.878;2022-12-29T04:05:00;38.67;;;24.10;;
75506;SDS011;64086;43.220;27.878;2022-12-29T04:07:25;38.03;;;26.10;;
75506;SDS011;64086;43.220;27.878;2022-12-29T04:09:50;34.20;;;21.73;;
75506;SDS011;64086;43.220;27.878;2022-12-29T04:12:16;30.73;;;21.48;;
75506;SDS011;64086;43.220;27.878;2022-12-29T04:14:41;38.17;;;23.55;;
75506;SDS011;64086;43.220;27.878;2022-12-29T04:17:07;31.05;;;19.75;;
75506;SDS011;64086;43.220;27.878;2022-12-29T04:19:32;34.38;;;20.83;;
75506;SDS011;64086;43.220;27.878;2022-12-29T04:21:58;28.80;;;18.35;;
75506;SDS011;64086;43.220;27.878;2022-12-29T04:24:23;37.15;;;21.65;;
75506;SDS011;64086;43.220;27.878;2022-12-29T04:26:48;36.42;;;24.25;;
75506;SDS011;64086;43.220;27.878;2022-12-29T04:29:14;36.80;;;23.83;;
75506;SDS011;64086;43.220;27.878;2022-12-29T04:31:39;40.05;;;26.23;;
75506;SDS011;64086;43.220;27.878;2022-12-29T04:34:05;39.08;;;26.27;;
75506;SDS011;64086;43.220;27.878;2022-12-29T04:36:30;46.53;;;28.48;;
75506;SDS011;64086;43.220;27.878;2022-12-29T04:38:56;47.50;;;29.83;;
75506;SDS011;64086;43.220;27.878;2022-12-29T04:41:21;42.83;;;26.42;;
75506;SDS011;64086;43.220;27.878;2022-12-29T04:43:49;39.70;;;24.73;;
75506;SDS011;64086;43.220;27.878;2022-12-29T04:46:14;32.78;;;22.17;;
75506;SDS011;64086;43.220;27.878;2022-12-29T04:48:40;34.08;;;23.13;;
75506;SDS011;64086;43.220;27.878;2022-12-29T04:51:05;25.08;;;16.10;;
75506;SDS011;64086;43.220;27.878;2022-12-29T04:53:30;24.35;;;14.60;;
75506;SDS011;64086;43.220;27.878;2022-12-29T04:55:56;18.10;;;12.27;;
75506;SDS011;64086;43.220;27.878;2022-12-29T04:58:21;20.63;;;13.65;;
75506;SDS011;64086;43.220;27.878;2022-12-29T05:00:47;20.67;;;12.90;;
75506;SDS011;64086;43.220;27.878;2022-12-29T05:03:12;21.20;;;13.88;;
75506;SDS011;64086;43.220;27.878;2022-12-29T05:05:38;20.52;;;14.52;;
75506;SDS011;64086;43.220;27.878;2022-12-29T05:08:03;23.13;;;15.32;;
75506;SDS011;64086;43.220;27.878;2022-12-29T05:10:29;27.67;;;18.08;;
75506;SDS011;64086;43.220;27.878;2022-12-29T05:12:54;30.00;;;19.63;;
75506;SDS011;64086;43.220;27.878;2022-12-29T05:15:20;30.67;;;21.15;;
75506;SDS011;64086;43.220;27.878;2022-12-29T05:20:42;38.00;;;27.33;;
75506;SDS011;64086;43.220;27.878;2022-12-29T05:23:07;36.75;;;26.13;;
75506;SDS011;64086;43.220;27.878;2022-12-29T05:25:32;39.28;;;27.08;;
75506;SDS011;64086;43.220;27.878;2022-12-29T05:27:58;39.50;;;27.50;;
75506;SDS011;64086;43.220;27.878;2022-12-29T05:30:23;37.92;;;25.27;;
75506;SDS011;64086;43.220;27.878;2022-12-29T05:32:49;47.15;;;29.83;;
75506;SDS011;64086;43.220;27.878;2022-12-29T05:35:14;35.50;;;23.45;;
75506;SDS011;64086;43.220;27.878;2022-12-29T05:37:40;36.83;;;25.23;;
75506;SDS011;64086;43.220;27.878;2022-12-29T05:40:05;34.63;;;23.10;;
75506;SDS011;64086;43.220;27.878;2022-12-29T05:42:31;39.30;;;25.20;;
75506;SDS011;64086;43.220;27.878;2022-12-29T05:44:57;39.25;;;24.70;;
75506;SDS011;64086;43.220;27.878;2022-12-29T05:47:23;40.88;;;25.48;;
75506;SDS011;64086;43.220;27.878;2022-12-29T05:49:48;33.47;;;23.50;;
75506;SDS011;64086;43.220;27.878;2022-12-29T05:55:07;34.47;;;21.17;;
75506;SDS011;64086;43.220;27.878;2022-12-29T05:57:33;32.80;;;22.83;;
75506;SDS011;64086;43.220;27.878;2022-12-29T05:59:59;29.30;;;21.08;;
75506;SDS011;64086;43.220;27.878;2022-12-29T06:02:24;33.85;;;23.60;;
75506;SDS011;64086;43.220;27.878;2022-12-29T06:04:50;34.63;;;26.08;;
75506;SDS011;64086;43.220;27.878;2022-12-29T06:07:15;42.25;;;28.40;;
75506;SDS011;64086;43.220;27.878;2022-12-29T06:09:41;39.45;;;29.65;;
75506;SDS011;64086;43.220;27.878;2022-12-29T06:12:06;58.03;;;38.80;;
75506;SDS011;64086;43.220;27.878;2022-12-29T06:14:32;57.80;;;38.63;;
75506;SDS011;64086;43.220;27.878;2022-12-29T06:16:57;52.97;;;39.10;;
75506;SDS011;64086;43.220;27.878;2022-12-29T06:19:22;60.53;;;42.63;;
75506;SDS011;64086;43.220;27.878;2022-12-29T06:21:48;66.72;;;47.47;;
75506;SDS011;64086;43.220;27.878;2022-12-29T06:24:13;63.35;;;46.05;;
75506;SDS011;64086;43.220;27.878;2022-12-29T06:26:39;57.97;;;42.63;;
75506;SDS011;64086;43.220;27.878;2022-12-29T06:29:05;54.00;;;39.72;;
75506;SDS011;64086;43.220;27.878;2022-12-29T06:31:33;52.60;;;37.20;;
75506;SDS011;64086;43.220;27.878;2022-12-29T06:33:58;43.88;;;34.03;;
75506;SDS011;64086;43.220;27.878;2022-12-29T06:36:24;40.72;;;29.35;;
75506;SDS011;64086;43.220;27.878;2022-12-29T06:38:49;33.58;;;26.35;;
75506;SDS011;64086;43.220;27.878;2022-12-29T06:41:17;40.60;;;31.48;;
75506;SDS011;64086;43.220;27.878;2022-12-29T06:43:43;38.13;;;30.83;;
75506;SDS011;64086;43.220;27.878;2022-12-29T06:46:08;48.92;;;38.95;;
75506;SDS011;64086;43.220;27.878;2022-12-29T06:48:34;44.33;;;38.40;;
75506;SDS011;64086;43.220;27.878;2022-12-29T06:50:59;61.95;;;49.05;;
75506;SDS011;64086;43.220;27.878;2022-12-29T06:53:25;66.38;;;55.42;;
75506;SDS011;64086;43.220;27.878;2022-12-29T06:55:50;92.10;;;82.05;;
75506;SDS011;64086;43.220;27.878;2022-12-29T06:58:16;77.53;;;69.32;;
75506;SDS011;64086;43.220;27.878;2022-12-29T07:00:41;93.20;;;83.32;;
75506;SDS011;64086;43.220;27.878;2022-12-29T07:03:07;93.40;;;83.28;;
75506;SDS011;64086;43.220;27.878;2022-12-29T07:05:32;88.30;;;79.28;;
75506;SDS011;64086;43.220;27.878;2022-12-29T07:07:58;75.05;;;67.43;;
75506;SDS011;64086;43.220;27.878;2022-12-29T07:10:23;69.43;;;62.58;;
75506;SDS011;64086;43.220;27.878;2022-12-29T07:12:49;75.03;;;67.55;;
75506;SDS011;64086;43.220;27.878;2022-12-29T07:15:14;65.55;;;58.63;;
75506;SDS011;64086;43.220;27.878;2022-12-29T07:17:40;72.93;;;65.57;;
75506;SDS011;64086;43.220;27.878;2022-12-29T07:20:05;69.68;;;62.72;;
75506;SDS011;64086;43.220;27.878;2022-12-29T07:22:32;65.72;;;59.60;;
75506;SDS011;64086;43.220;27.878;2022-12-29T07:24:57;68.65;;;61.63;;
75506;SDS011;64086;43.220;27.878;2022-12-29T07:27:23;68.28;;;60.90;;
75506;SDS011;64086;43.220;27.878;2022-12-29T07:29:48;70.82;;;63.80;;
75506;SDS011;64086;43.220;27.878;2022-12-29T07:32:13;71.03;;;64.00;;
75506;SDS011;64086;43.220;27.878;2022-12-29T07:34:39;68.63;;;62.00;;
75506;SDS011;64086;43.220;27.878;2022-12-29T07:37:05;66.55;;;59.63;;
75506;SDS011;64086;43.220;27.878;2022-12-29T07:39:30;63.40;;;57.05;;
75506;SDS011;64086;43.220;27.878;2022-12-29T07:41:56;63.38;;;57.10;;
75506;SDS011;64086;43.220;27.878;2022-12-29T07:44:21;61.40;;;55.33;;
75506;SDS011;64086;43.220;27.878;2022-12-29T07:46:46;65.57;;;59.33;;
75506;SDS011;64086;43.220;27.878;2022-12-29T07:49:12;70.38;;;63.20;;
75506;SDS011;64086;43.220;27.878;2022-12-29T07:51:37;73.20;;;66.32;;
75506;SDS011;64086;43.220;27.878;2022-12-29T07:54:03;81.60;;;73.63;;
75506;SDS011;64086;43.220;27.878;2022-12-29T07:56:28;81.07;;;73.30;;
75506;SDS011;64086;43.220;27.878;2022-12-29T07:58:54;77.72;;;70.10;;
75506;SDS011;64086;43.220;27.878;2022-12-29T08:01:19;76.38;;;68.15;;
75506;SDS011;64086;43.220;27.878;2022-12-29T08:03:45;67.53;;;60.30;;
75506;SDS011;64086;43.220;27.878;2022-12-29T08:06:11;60.95;;;54.05;;
75506;SDS011;64086;43.220;27.878;2022-12-29T08:08:36;54.00;;;48.28;;
75506;SDS011;64086;43.220;27.878;2022-12-29T08:11:03;59.28;;;44.42;;
75506;SDS011;64086;43.220;27.878;2022-12-29T08:13:28;48.70;;;40.08;;
75506;SDS011;64086;43.220;27.878;2022-12-29T08:15:54;41.67;;;37.13;;
75506;SDS011;64086;43.220;27.878;2022-12-29T08:18:19;39.97;;;35.15;;
75506;SDS011;64086;43.220;27.878;2022-12-29T08:20:44;43.38;;;34.17;;
75506;SDS011;64086;43.220;27.878;2022-12-29T08:23:10;44.47;;;32.05;;
75506;SDS011;64086;43.220;27.878;2022-12-29T08:25:35;37.20;;;31.65;;
75506;SDS011;64086;43.220;27.878;2022-12-29T08:28:01;36.70;;;32.15;;
75506;SDS011;64086;43.220;27.878;2022-12-29T08:30:26;35.15;;;30.35;;
75506;SDS011;64086;43.220;27.878;2022-12-29T08:32:51;36.40;;;30.30;;
75506;SDS011;64086;43.220;27.878;2022-12-29T08:35:17;35.60;;;28.55;;
75506;SDS011;64086;43.220;27.878;2022-12-29T08:37:42;32.90;;;25.90;;
75506;SDS011;64086;43.220;27.878;2022-12-29T08:40:08;35.78;;;25.70;;
75506;SDS011;64086;43.220;27.878;2022-12-29T08:42:34;30.02;;;24.20;;
75506;SDS011;64086;43.220;27.878;2022-12-29T08:44:59;29.38;;;23.35;;
75506;SDS011;64086;43.220;27.878;2022-12-29T08:47:25;26.38;;;21.25;;
75506;SDS011;64086;43.220;27.878;2022-12-29T08:49:51;22.83;;;20.20;;
75506;SDS011;64086;43.220;27.878;2022-12-29T08:52:17;20.27;;;18.00;;
75506;SDS011;64086;43.220;27.878;2022-12-29T08:54:43;22.88;;;17.30;;
75506;SDS011;64086;43.220;27.878;2022-12-29T08:57:08;24.15;;;19.30;;
75506;SDS011;64086;43.220;27.878;2022-12-29T08:59:33;26.30;;;20.17;;
75506;SDS011;64086;43.220;27.878;2022-12-29T09:01:59;27.25;;;23.20;;
75506;SDS011;64086;43.220;27.878;2022-12-29T09:04:26;21.63;;;17.95;;
75506;SDS011;64086;43.220;27.878;2022-12-29T09:06:52;19.50;;;15.88;;
75506;SDS011;64086;43.220;27.878;2022-12-29T09:09:17;20.77;;;15.23;;
75506;SDS011;64086;43.220;27.878;2022-12-29T09:11:43;22.42;;;16.40;;
75506;SDS011;64086;43.220;27.878;2022-12-29T09:14:08;13.10;;;7.72;;
75506;SDS011;64086;43.220;27.878;2022-12-29T09:16:34;11.32;;;7.65;;
75506;SDS011;64086;43.220;27.878;2022-12-29T09:19:00;11.32;;;6.88;;
75506;SDS011;64086;43.220;27.878;2022-12-29T09:21:26;10.50;;;8.15;;
75506;SDS011;64086;43.220;27.878;2022-12-29T09:23:51;15.15;;;12.10;;
75506;SDS011;64086;43.220;27.878;2022-12-29T09:26:17;12.02;;;10.75;;
75506;SDS011;64086;43.220;27.878;2022-12-29T09:28:43;14.88;;;13.27;;
75506;SDS011;64086;43.220;27.878;2022-12-29T09:31:09;19.02;;;14.48;;
75506;SDS011;64086;43.220;27.878;2022-12-29T09:33:35;13.90;;;11.43;;
75506;SDS011;64086;43.220;27.878;2022-12-29T09:36:00;16.50;;;13.10;;
75506;SDS011;64086;43.220;27.878;2022-12-29T09:38:26;13.75;;;11.43;;
75506;SDS011;64086;43.220;27.878;2022-12-29T09:40:56;18.10;;;13.43;;
75506;SDS011;64086;43.220;27.878;2022-12-29T09:43:43;10.85;;;7.75;;
75506;SDS011;64086;43.220;27.878;2022-12-29T09:49:08;11.10;;;7.80;;
75506;SDS011;64086;43.220;27.878;2022-12-29T09:51:41;9.85;;;7.13;;
75506;SDS011;64086;43.220;27.878;2022-12-29T09:54:28;9.38;;;7.68;;
75506;SDS011;64086;43.220;27.878;2022-12-29T10:00:03;9.35;;;7.78;;
75506;SDS011;64086;43.220;27.878;2022-12-29T10:02:54;8.90;;;7.45;;
75506;SDS011;64086;43.220;27.878;2022-12-29T10:07:52;14.90;;;9.20;;
75506;SDS011;64086;43.220;27.878;2022-12-29T10:13:19;10.60;;;9.50;;
75506;SDS011;64086;43.220;27.878;2022-12-29T10:16:04;10.68;;;9.05;;
75506;SDS011;64086;43.220;27.878;2022-12-29T10:24:16;11.50;;;8.27;;
75506;SDS011;64086;43.220;27.878;2022-12-29T10:26:44;10.55;;;8.80;;
75506;SDS011;64086;43.220;27.878;2022-12-29T10:29:18;9.82;;;8.13;;
75506;SDS011;64086;43.220;27.878;2022-12-29T10:31:50;9.55;;;8.55;;
75506;SDS011;64086;43.220;27.878;2022-12-29T10:34:22;12.38;;;9.30;;
75506;SDS011;64086;43.220;27.878;2022-12-29T10:37:00;11.45;;;9.88;;
75506;SDS011;64086;43.220;27.878;2022-12-29T10:39:45;12.07;;;9.23;;
75506;SDS011;64086;43.220;27.878;2022-12-29T10:44:53;14.88;;;10.50;;
75506;SDS011;64086;43.220;27.878;2022-12-29T10:47:20;11.95;;;10.00;;
75506;SDS011;64086;43.220;27.878;2022-12-29T10:49:48;11.43;;;9.68;;
75506;SDS011;64086;43.220;27.878;2022-12-29T10:52:15;12.15;;;10.95;;
75506;SDS011;64086;43.220;27.878;2022-12-29T10:57:22;9.75;;;8.68;;
75506;SDS011;64086;43.220;27.878;2022-12-29T10:59:51;12.25;;;9.30;;
75506;SDS011;64086;43.220;27.878;2022-12-29T11:08:04;10.85;;;8.23;;
75506;SDS011;64086;43.220;27.878;2022-12-29T11:16:13;12.88;;;10.18;;
75506;SDS011;64086;43.220;27.878;2022-12-29T11:18:39;11.30;;;9.80;;
75506;SDS011;64086;43.220;27.878;2022-12-29T11:21:23;12.07;;;8.95;;
75506;SDS011;64086;43.220;27.878;2022-12-29T11:24:05;11.27;;;8.77;;
75506;SDS011;64086;43.220;27.878;2022-12-29T11:26:44;10.98;;;8.95;;
75506;SDS011;64086;43.220;27.878;2022-12-29T11:31:46;9.47;;;8.27;;
75506;SDS011;64086;43.220;27.878;2022-12-29T11:34:20;17.42;;;9.68;;
75506;SDS011;64086;43.220;27.878;2022-12-29T11:36:51;16.30;;;9.40;;
75506;SDS011;64086;43.220;27.878;2022-12-29T11:41:53;13.00;;;9.20;;
75506;SDS011;64086;43.220;27.878;2022-12-29T11:44:19;15.00;;;9.10;;
75506;SDS011;64086;43.220;27.878;2022-12-29T11:46:45;13.20;;;8.77;;
75506;SDS011;64086;43.220;27.878;2022-12-29T11:49:13;14.02;;;10.43;;
75506;SDS011;64086;43.220;27.878;2022-12-29T11:51:45;13.57;;;9.50;;
75506;SDS011;64086;43.220;27.878;2022-12-29T11:54:21;12.40;;;8.75;;
75506;SDS011;64086;43.220;27.878;2022-12-29T11:56:47;8.77;;;7.82;;
75506;SDS011;64086;43.220;27.878;2022-12-29T12:04:48;13.20;;;11.18;;
75506;SDS011;64086;43.220;27.878;2022-12-29T12:07:17;12.55;;;11.02;;
75506;SDS011;64086;43.220;27.878;2022-12-29T12:09:51;13.57;;;10.90;;
75506;SDS011;64086;43.220;27.878;2022-12-29T12:15:03;12.95;;;10.23;;
75506;SDS011;64086;43.220;27.878;2022-12-29T12:17:30;12.45;;;9.38;;
75506;SDS011;64086;43.220;27.878;2022-12-29T12:20:04;12.70;;;9.73;;
75506;SDS011;64086;43.220;27.878;2022-12-29T12:22:38;13.77;;;10.77;;
75506;SDS011;64086;43.220;27.878;2022-12-29T12:27:56;12.80;;;10.60;;
75506;SDS011;64086;43.220;27.878;2022-12-29T12:30:28;14.32;;;9.73;;
75506;SDS011;64086;43.220;27.878;2022-12-29T12:38:20;11.88;;;9.65;;
75506;SDS011;64086;43.220;27.878;2022-12-29T12:40:59;13.23;;;10.50;;
75506;SDS011;64086;43.220;27.878;2022-12-29T12:43:31;14.30;;;10.23;;
75506;SDS011;64086;43.220;27.878;2022-12-29T12:57:30;10.93;;;8.45;;
75506;SDS011;64086;43.220;27.878;2022-12-29T13:10:56;14.85;;;9.77;;
75506;SDS011;64086;43.220;27.878;2022-12-29T13:26:56;9.98;;;8.38;;
75506;SDS011;64086;43.220;27.878;2022-12-29T13:29:32;10.95;;;8.15;;
75506;SDS011;64086;43.220;27.878;2022-12-29T13:37:20;11.65;;;8.90;;
75506;SDS011;64086;43.220;27.878;2022-12-29T13:39:48;9.88;;;8.00;;
75506;SDS011;64086;43.220;27.878;2022-12-29T13:42:16;11.73;;;8.05;;
75506;SDS011;64086;43.220;27.878;2022-12-29T13:44:48;16.65;;;8.50;;
75506;SDS011;64086;43.220;27.878;2022-12-29T13:47:29;10.48;;;8.23;;
75506;SDS011;64086;43.220;27.878;2022-12-29T13:49:58;10.60;;;8.57;;
75506;SDS011;64086;43.220;27.878;2022-12-29T13:52:36;11.13;;;8.35;;
75506;SDS011;64086;43.220;27.878;2022-12-29T14:00:33;12.63;;;9.13;;
75506;SDS011;64086;43.220;27.878;2022-12-29T14:08:56;14.10;;;8.60;;
75506;SDS011;64086;43.220;27.878;2022-12-29T14:11:28;13.20;;;9.23;;
75506;SDS011;64086;43.220;27.878;2022-12-29T14:13:55;15.50;;;9.73;;
75506;SDS011;64086;43.220;27.878;2022-12-29T14:16:28;15.55;;;10.02;;
75506;SDS011;64086;43.220;27.878;2022-12-29T14:18:55;15.95;;;10.45;;
75506;SDS011;64086;43.220;27.878;2022-12-29T14:21:35;14.82;;;10.52;;
75506;SDS011;64086;43.220;27.878;2022-12-29T14:26:52;18.95;;;11.25;;
75506;SDS011;64086;43.220;27.878;2022-12-29T14:31:50;16.58;;;11.38;;
75506;SDS011;64086;43.220;27.878;2022-12-29T14:34:24;22.85;;;13.10;;
75506;SDS011;64086;43.220;27.878;2022-12-29T14:36:53;21.77;;;12.13;;
75506;SDS011;64086;43.220;27.878;2022-12-29T14:39:27;18.05;;;12.35;;
75506;SDS011;64086;43.220;27.878;2022-12-29T14:44:45;19.85;;;13.13;;
75506;SDS011;64086;43.220;27.878;2022-12-29T14:47:27;21.08;;;13.10;;
75506;SDS011;64086;43.220;27.878;2022-12-29T14:52:30;21.92;;;14.50;;
75506;SDS011;64086;43.220;27.878;2022-12-29T14:57:52;19.38;;;13.60;;
75506;SDS011;64086;43.220;27.878;2022-12-29T15:00:24;19.20;;;14.20;;
75506;SDS011;64086;43.220;27.878;2022-12-29T15:02:54;22.35;;;14.75;;
75506;SDS011;64086;43.220;27.878;2022-12-29T15:08:33;21.83;;;15.10;;
75506;SDS011;64086;43.220;27.878;2022-12-29T15:11:05;18.05;;;15.25;;
75506;SDS011;64086;43.220;27.878;2022-12-29T15:13:36;23.88;;;16.08;;
75506;SDS011;64086;43.220;27.878;2022-12-29T15:16:03;21.63;;;14.88;;
75506;SDS011;64086;43.220;27.878;2022-12-29T15:18:30;21.15;;;16.40;;
75506;SDS011;64086;43.220;27.878;2022-12-29T15:20:58;17.38;;;13.63;;
75506;SDS011;64086;43.220;27.878;2022-12-29T15:23:26;21.20;;;15.80;;
75506;SDS011;64086;43.220;27.878;2022-12-29T15:25:56;20.50;;;15.55;;
75506;SDS011;64086;43.220;27.878;2022-12-29T15:28:23;26.17;;;17.35;;
75506;SDS011;64086;43.220;27.878;2022-12-29T15:30:56;17.58;;;12.52;;
75506;SDS011;64086;43.220;27.878;2022-12-29T15:33:27;19.60;;;13.57;;
75506;SDS011;64086;43.220;27.878;2022-12-29T15:35:53;18.88;;;14.05;;
75506;SDS011;64086;43.220;27.878;2022-12-29T15:38:23;22.20;;;14.40;;
75506;SDS011;64086;43.220;27.878;2022-12-29T15:40:55;18.77;;;13.10;;
75506;SDS011;64086;43.220;27.878;2022-12-29T15:43:40;19.70;;;14.23;;
75506;SDS011;64086;43.220;27.878;2022-12-29T15:46:10;19.13;;;15.50;;
75506;SDS011;64086;43.220;27.878;2022-12-29T15:48:35;22.02;;;15.38;;
75506;SDS011;64086;43.220;27.878;2022-12-29T15:51:03;20.85;;;14.88;;
75506;SDS011;64086;43.220;27.878;2022-12-29T15:53:43;25.35;;;17.75;;
75506;SDS011;64086;43.220;27.878;2022-12-29T15:56:12;23.23;;;16.83;;
75506;SDS011;64086;43.220;27.878;2022-12-29T15:58:43;22.88;;;16.55;;
75506;SDS011;64086;43.220;27.878;2022-12-29T16:03:58;23.25;;;17.08;;
75506;SDS011;64086;43.220;27.878;2022-12-29T16:09:06;22.15;;;17.20;;
75506;SDS011;64086;43.220;27.878;2022-12-29T16:11:46;22.48;;;18.13;;
75506;SDS011;64086;43.220;27.878;2022-12-29T16:14:19;31.48;;;20.38;;
75506;SDS011;64086;43.220;27.878;2022-12-29T16:16:49;31.77;;;23.33;;
75506;SDS011;64086;43.220;27.878;2022-12-29T16:21:41;32.53;;;24.50;;
75506;SDS011;64086;43.220;27.878;2022-12-29T16:24:08;37.80;;;26.85;;
75506;SDS011;64086;43.220;27.878;2022-12-29T16:26:39;43.83;;;27.25;;
75506;SDS011;64086;43.220;27.878;2022-12-29T16:29:05;32.65;;;24.45;;
75506;SDS011;64086;43.220;27.878;2022-12-29T16:33:57;26.90;;;21.70;;
75506;SDS011;64086;43.220;27.878;2022-12-29T16:36:32;30.95;;;20.83;;
75506;SDS011;64086;43.220;27.878;2022-12-29T16:39:05;33.70;;;26.33;;
75506;SDS011;64086;43.220;27.878;2022-12-29T16:41:48;35.25;;;26.80;;
75506;SDS011;64086;43.220;27.878;2022-12-29T16:44:18;27.67;;;20.83;;
75506;SDS011;64086;43.220;27.878;2022-12-29T16:49:29;33.20;;;26.52;;
75506;SDS011;64086;43.220;27.878;2022-12-29T16:51:56;34.20;;;26.45;;
75506;SDS011;64086;43.220;27.878;2022-12-29T16:54:28;43.08;;;31.52;;
75506;SDS011;64086;43.220;27.878;2022-12-29T16:56:59;32.83;;;24.98;;
75506;SDS011;64086;43.220;27.878;2022-12-29T16:59:35;35.20;;;25.80;;
75506;SDS011;64086;43.220;27.878;2022-12-29T17:02:07;29.63;;;23.40;;
75506;SDS011;64086;43.220;27.878;2022-12-29T17:04:39;33.10;;;24.45;;
75506;SDS011;64086;43.220;27.878;2022-12-29T17:07:11;35.63;;;27.95;;
75506;SDS011;64086;43.220;27.878;2022-12-29T17:09:42;35.95;;;28.00;;
75506;SDS011;64086;43.220;27.878;2022-12-29T17:12:07;38.05;;;29.58;;
75506;SDS011;64086;43.220;27.878;2022-12-29T17:14:40;45.00;;;33.38;;
75506;SDS011;64086;43.220;27.878;2022-12-29T17:20:20;29.52;;;23.02;;
75506;SDS011;64086;43.220;27.878;2022-12-29T17:22:47;33.53;;;25.20;;
75506;SDS011;64086;43.220;27.878;2022-12-29T17:25:14;40.15;;;27.75;;
75506;SDS011;64086;43.220;27.878;2022-12-29T17:27:44;40.13;;;27.33;;
75506;SDS011;64086;43.220;27.878;2022-12-29T17:30:12;34.90;;;25.10;;
75506;SDS011;64086;43.220;27.878;2022-12-29T17:32:40;34.33;;;24.80;;